Terminal Aerodrome Forecast
Issued by NWS

Current Version | Previous Version | Graphics & Text | Print | Product List | Glossary On
Versions: 1 2 3 4 5 6 7 8 9 10 11 12 13 14 15 16 17 18 19 20 21 22 23 24 25 26 27
000
FTUS41 KRLX 281000 AAB
TAFCKB
TAF AMD
KCKB 281048Z 2811/2906 VRB03KT 6SM BR BKN015
     FM281200 00000KT 4SM BR SCT015
     FM281300 35004KT P6SM SCT030
     FM290500 00000KT 6SM BR FEW200=

USA.gov is the U.S. government's official web portal to all federal, state and local government web resources and services.